sensor_id;sensor_type;location;lat;lon;timestamp;P1;durP1;ratioP1;P2;durP2;ratioP2
25023;SDS011;13033;50.936;5.334;2023-08-17T00:01:39;9.73;;;4.50;;
25023;SDS011;13033;50.936;5.334;2023-08-17T00:04:05;5.70;;;4.55;;
25023;SDS011;13033;50.936;5.334;2023-08-17T00:06:30;6.65;;;4.63;;
25023;SDS011;13033;50.936;5.334;2023-08-17T00:08:56;6.25;;;4.35;;
25023;SDS011;13033;50.936;5.334;2023-08-17T00:11:22;7.65;;;4.95;;
25023;SDS011;13033;50.936;5.334;2023-08-17T00:13:48;10.55;;;4.68;;
25023;SDS011;13033;50.936;5.334;2023-08-17T00:16:14;8.23;;;4.60;;
25023;SDS011;13033;50.936;5.334;2023-08-17T00:18:39;8.00;;;4.82;;
25023;SDS011;13033;50.936;5.334;2023-08-17T00:21:05;8.52;;;4.90;;
25023;SDS011;13033;50.936;5.334;2023-08-17T00:23:31;6.70;;;5.05;;
25023;SDS011;13033;50.936;5.334;2023-08-17T00:25:56;7.90;;;4.65;;
25023;SDS011;13033;50.936;5.334;2023-08-17T00:28:22;12.68;;;4.30;;
25023;SDS011;13033;50.936;5.334;2023-08-17T00:30:48;5.97;;;4.57;;
25023;SDS011;13033;50.936;5.334;2023-08-17T00:33:13;7.35;;;4.53;;
25023;SDS011;13033;50.936;5.334;2023-08-17T00:35:39;7.07;;;4.50;;
25023;SDS011;13033;50.936;5.334;2023-08-17T00:38:05;8.60;;;4.30;;
25023;SDS011;13033;50.936;5.334;2023-08-17T00:40:31;8.43;;;4.32;;
25023;SDS011;13033;50.936;5.334;2023-08-17T00:42:56;6.85;;;4.55;;
25023;SDS011;13033;50.936;5.334;2023-08-17T00:45:22;6.00;;;4.70;;
25023;SDS011;13033;50.936;5.334;2023-08-17T00:47:49;5.63;;;4.30;;
25023;SDS011;13033;50.936;5.334;2023-08-17T00:50:15;9.73;;;4.10;;
25023;SDS011;13033;50.936;5.334;2023-08-17T00:52:41;5.15;;;4.00;;
25023;SDS011;13033;50.936;5.334;2023-08-17T00:55:07;7.88;;;3.67;;
25023;SDS011;13033;50.936;5.334;2023-08-17T00:57:36;7.45;;;3.90;;
25023;SDS011;13033;50.936;5.334;2023-08-17T01:00:02;7.63;;;3.90;;
25023;SDS011;13033;50.936;5.334;2023-08-17T01:02:30;6.00;;;4.03;;
25023;SDS011;13033;50.936;5.334;2023-08-17T01:04:56;5.97;;;3.45;;
25023;SDS011;13033;50.936;5.334;2023-08-17T01:07:21;9.73;;;3.80;;
25023;SDS011;13033;50.936;5.334;2023-08-17T01:09:47;4.63;;;3.75;;
25023;SDS011;13033;50.936;5.334;2023-08-17T01:12:26;9.77;;;3.72;;
25023;SDS011;13033;50.936;5.334;2023-08-17T01:18:00;7.00;;;3.50;;
25023;SDS011;13033;50.936;5.334;2023-08-17T01:20:28;6.35;;;3.63;;
25023;SDS011;13033;50.936;5.334;2023-08-17T01:22:56;5.43;;;3.50;;
25023;SDS011;13033;50.936;5.334;2023-08-17T01:25:30;9.45;;;3.50;;
25023;SDS011;13033;50.936;5.334;2023-08-17T01:28:01;5.78;;;3.63;;
25023;SDS011;13033;50.936;5.334;2023-08-17T01:30:27;4.68;;;3.72;;
25023;SDS011;13033;50.936;5.334;2023-08-17T01:32:57;6.68;;;3.88;;
25023;SDS011;13033;50.936;5.334;2023-08-17T01:35:34;5.35;;;3.95;;
25023;SDS011;13033;50.936;5.334;2023-08-17T01:38:07;6.85;;;3.45;;
25023;SDS011;13033;50.936;5.334;2023-08-17T01:40:36;6.43;;;3.92;;
25023;SDS011;13033;50.936;5.334;2023-08-17T01:43:03;7.65;;;3.83;;
25023;SDS011;13033;50.936;5.334;2023-08-17T01:45:28;8.82;;;3.60;;
25023;SDS011;13033;50.936;5.334;2023-08-17T01:47:55;9.85;;;3.78;;
25023;SDS011;13033;50.936;5.334;2023-08-17T01:50:20;7.90;;;3.40;;
25023;SDS011;13033;50.936;5.334;2023-08-17T01:52:46;6.50;;;3.75;;
25023;SDS011;13033;50.936;5.334;2023-08-17T01:55:12;5.65;;;3.50;;
25023;SDS011;13033;50.936;5.334;2023-08-17T01:57:38;6.32;;;3.83;;
25023;SDS011;13033;50.936;5.334;2023-08-17T02:00:04;7.88;;;3.38;;
25023;SDS011;13033;50.936;5.334;2023-08-17T02:02:30;8.23;;;3.90;;
25023;SDS011;13033;50.936;5.334;2023-08-17T02:04:56;4.32;;;3.55;;
25023;SDS011;13033;50.936;5.334;2023-08-17T02:07:22;4.97;;;3.53;;
25023;SDS011;13033;50.936;5.334;2023-08-17T02:09:47;5.85;;;3.72;;
25023;SDS011;13033;50.936;5.334;2023-08-17T02:12:13;6.63;;;3.92;;
25023;SDS011;13033;50.936;5.334;2023-08-17T02:14:39;10.18;;;3.50;;
25023;SDS011;13033;50.936;5.334;2023-08-17T02:17:04;6.00;;;3.63;;
25023;SDS011;13033;50.936;5.334;2023-08-17T02:19:31;6.20;;;3.63;;
25023;SDS011;13033;50.936;5.334;2023-08-17T02:21:58;6.53;;;4.22;;
25023;SDS011;13033;50.936;5.334;2023-08-17T02:24:24;8.40;;;4.18;;
25023;SDS011;13033;50.936;5.334;2023-08-17T02:26:50;9.15;;;4.18;;
25023;SDS011;13033;50.936;5.334;2023-08-17T02:29:15;11.10;;;4.20;;
25023;SDS011;13033;50.936;5.334;2023-08-17T02:31:41;6.40;;;4.28;;
25023;SDS011;13033;50.936;5.334;2023-08-17T02:34:07;6.60;;;3.88;;
25023;SDS011;13033;50.936;5.334;2023-08-17T02:36:33;9.02;;;4.50;;
25023;SDS011;13033;50.936;5.334;2023-08-17T02:38:58;7.63;;;3.70;;
25023;SDS011;13033;50.936;5.334;2023-08-17T02:41:24;7.43;;;4.47;;
25023;SDS011;13033;50.936;5.334;2023-08-17T02:43:50;5.72;;;4.18;;
25023;SDS011;13033;50.936;5.334;2023-08-17T02:46:15;7.90;;;4.55;;
25023;SDS011;13033;50.936;5.334;2023-08-17T02:48:41;5.35;;;3.78;;
25023;SDS011;13033;50.936;5.334;2023-08-17T02:51:07;9.35;;;4.07;;
25023;SDS011;13033;50.936;5.334;2023-08-17T02:53:32;9.55;;;3.97;;
25023;SDS011;13033;50.936;5.334;2023-08-17T02:55:58;5.68;;;3.80;;
25023;SDS011;13033;50.936;5.334;2023-08-17T02:58:24;6.70;;;4.00;;
25023;SDS011;13033;50.936;5.334;2023-08-17T03:00:52;8.70;;;3.83;;
25023;SDS011;13033;50.936;5.334;2023-08-17T03:03:18;5.60;;;3.63;;
25023;SDS011;13033;50.936;5.334;2023-08-17T03:05:44;6.45;;;4.30;;
25023;SDS011;13033;50.936;5.334;2023-08-17T03:08:10;5.88;;;3.90;;
25023;SDS011;13033;50.936;5.334;2023-08-17T03:10:36;5.05;;;3.80;;
25023;SDS011;13033;50.936;5.334;2023-08-17T03:13:02;6.85;;;3.90;;
25023;SDS011;13033;50.936;5.334;2023-08-17T03:15:28;6.63;;;3.83;;
25023;SDS011;13033;50.936;5.334;2023-08-17T03:17:54;7.25;;;3.80;;
25023;SDS011;13033;50.936;5.334;2023-08-17T03:20:20;6.95;;;3.55;;
25023;SDS011;13033;50.936;5.334;2023-08-17T03:22:45;5.25;;;3.38;;
25023;SDS011;13033;50.936;5.334;2023-08-17T03:25:11;5.85;;;4.05;;
25023;SDS011;13033;50.936;5.334;2023-08-17T03:27:37;5.63;;;4.20;;
25023;SDS011;13033;50.936;5.334;2023-08-17T03:30:03;7.07;;;4.05;;
25023;SDS011;13033;50.936;5.334;2023-08-17T03:32:30;6.40;;;4.40;;
25023;SDS011;13033;50.936;5.334;2023-08-17T03:34:55;8.07;;;4.32;;
25023;SDS011;13033;50.936;5.334;2023-08-17T03:37:21;6.70;;;4.60;;
25023;SDS011;13033;50.936;5.334;2023-08-17T03:39:47;8.80;;;4.60;;
25023;SDS011;13033;50.936;5.334;2023-08-17T03:42:12;7.90;;;4.60;;
25023;SDS011;13033;50.936;5.334;2023-08-17T03:44:38;8.18;;;5.07;;
25023;SDS011;13033;50.936;5.334;2023-08-17T03:47:04;7.88;;;4.60;;
25023;SDS011;13033;50.936;5.334;2023-08-17T03:49:29;9.55;;;4.80;;
25023;SDS011;13033;50.936;5.334;2023-08-17T03:51:55;8.02;;;4.80;;
25023;SDS011;13033;50.936;5.334;2023-08-17T03:54:21;8.43;;;4.63;;
25023;SDS011;13033;50.936;5.334;2023-08-17T03:56:46;9.43;;;5.95;;
25023;SDS011;13033;50.936;5.334;2023-08-17T03:59:13;10.80;;;6.82;;
25023;SDS011;13033;50.936;5.334;2023-08-17T04:01:39;9.18;;;5.72;;
25023;SDS011;13033;50.936;5.334;2023-08-17T04:04:04;11.38;;;5.75;;
25023;SDS011;13033;50.936;5.334;2023-08-17T04:06:30;11.02;;;5.60;;
25023;SDS011;13033;50.936;5.334;2023-08-17T04:08:56;7.72;;;5.55;;
25023;SDS011;13033;50.936;5.334;2023-08-17T04:11:22;10.13;;;6.10;;
25023;SDS011;13033;50.936;5.334;2023-08-17T04:13:47;8.95;;;6.53;;
25023;SDS011;13033;50.936;5.334;2023-08-17T04:16:13;14.52;;;7.22;;
25023;SDS011;13033;50.936;5.334;2023-08-17T04:18:39;10.93;;;7.93;;
25023;SDS011;13033;50.936;5.334;2023-08-17T04:21:04;9.35;;;7.10;;
25023;SDS011;13033;50.936;5.334;2023-08-17T04:23:30;10.05;;;6.60;;
25023;SDS011;13033;50.936;5.334;2023-08-17T04:25:55;10.10;;;6.10;;
25023;SDS011;13033;50.936;5.334;2023-08-17T04:28:21;10.65;;;5.85;;
25023;SDS011;13033;50.936;5.334;2023-08-17T04:30:47;10.68;;;6.20;;
25023;SDS011;13033;50.936;5.334;2023-08-17T04:33:12;8.27;;;6.00;;
25023;SDS011;13033;50.936;5.334;2023-08-17T04:35:38;11.48;;;7.18;;
25023;SDS011;13033;50.936;5.334;2023-08-17T04:38:05;8.57;;;5.95;;
25023;SDS011;13033;50.936;5.334;2023-08-17T04:40:31;9.57;;;6.03;;
25023;SDS011;13033;50.936;5.334;2023-08-17T04:43:04;7.07;;;5.10;;
25023;SDS011;13033;50.936;5.334;2023-08-17T04:45:29;6.00;;;5.10;;
25023;SDS011;13033;50.936;5.334;2023-08-17T04:47:55;7.05;;;4.72;;
25023;SDS011;13033;50.936;5.334;2023-08-17T04:50:21;6.82;;;4.82;;
25023;SDS011;13033;50.936;5.334;2023-08-17T04:52:47;7.05;;;5.05;;
25023;SDS011;13033;50.936;5.334;2023-08-17T04:55:13;7.95;;;5.10;;
25023;SDS011;13033;50.936;5.334;2023-08-17T04:57:39;9.00;;;4.68;;
25023;SDS011;13033;50.936;5.334;2023-08-17T05:00:04;10.02;;;4.80;;
25023;SDS011;13033;50.936;5.334;2023-08-17T05:02:34;9.43;;;5.05;;
25023;SDS011;13033;50.936;5.334;2023-08-17T05:05:04;10.70;;;5.45;;
25023;SDS011;13033;50.936;5.334;2023-08-17T05:07:30;9.43;;;5.32;;
25023;SDS011;13033;50.936;5.334;2023-08-17T05:09:56;7.97;;;4.35;;
25023;SDS011;13033;50.936;5.334;2023-08-17T05:12:22;7.03;;;4.90;;
25023;SDS011;13033;50.936;5.334;2023-08-17T05:14:48;9.23;;;4.82;;
25023;SDS011;13033;50.936;5.334;2023-08-17T05:17:13;9.55;;;4.85;;
25023;SDS011;13033;50.936;5.334;2023-08-17T05:19:39;10.70;;;4.65;;
25023;SDS011;13033;50.936;5.334;2023-08-17T05:22:09;9.98;;;4.78;;
25023;SDS011;13033;50.936;5.334;2023-08-17T05:24:35;6.68;;;4.53;;
25023;SDS011;13033;50.936;5.334;2023-08-17T05:27:01;14.10;;;4.72;;
25023;SDS011;13033;50.936;5.334;2023-08-17T05:29:27;5.82;;;4.93;;
25023;SDS011;13033;50.936;5.334;2023-08-17T05:31:53;9.95;;;4.45;;
25023;SDS011;13033;50.936;5.334;2023-08-17T05:34:18;7.68;;;4.72;;
25023;SDS011;13033;50.936;5.334;2023-08-17T05:36:44;8.68;;;4.78;;
25023;SDS011;13033;50.936;5.334;2023-08-17T05:39:10;9.50;;;4.80;;
25023;SDS011;13033;50.936;5.334;2023-08-17T05:41:35;6.50;;;4.50;;
25023;SDS011;13033;50.936;5.334;2023-08-17T05:44:01;11.88;;;5.00;;
25023;SDS011;13033;50.936;5.334;2023-08-17T05:46:27;10.68;;;4.72;;
25023;SDS011;13033;50.936;5.334;2023-08-17T05:48:53;10.98;;;4.60;;
25023;SDS011;13033;50.936;5.334;2023-08-17T05:51:18;9.25;;;4.43;;
25023;SDS011;13033;50.936;5.334;2023-08-17T05:53:44;8.98;;;4.60;;
25023;SDS011;13033;50.936;5.334;2023-08-17T05:56:10;10.07;;;4.53;;
25023;SDS011;13033;50.936;5.334;2023-08-17T05:58:36;11.90;;;4.75;;
25023;SDS011;13033;50.936;5.334;2023-08-17T06:01:08;9.05;;;4.40;;
25023;SDS011;13033;50.936;5.334;2023-08-17T06:03:35;7.25;;;4.80;;
25023;SDS011;13033;50.936;5.334;2023-08-17T06:06:02;10.07;;;4.80;;
25023;SDS011;13033;50.936;5.334;2023-08-17T06:08:28;9.05;;;5.10;;
25023;SDS011;13033;50.936;5.334;2023-08-17T06:10:54;8.73;;;5.47;;
25023;SDS011;13033;50.936;5.334;2023-08-17T06:13:20;9.23;;;5.10;;
25023;SDS011;13033;50.936;5.334;2023-08-17T06:15:46;6.97;;;4.75;;
25023;SDS011;13033;50.936;5.334;2023-08-17T06:18:11;10.32;;;4.82;;
25023;SDS011;13033;50.936;5.334;2023-08-17T06:20:37;7.97;;;5.05;;
25023;SDS011;13033;50.936;5.334;2023-08-17T06:23:03;8.27;;;5.50;;
25023;SDS011;13033;50.936;5.334;2023-08-17T06:25:29;9.73;;;5.45;;
25023;SDS011;13033;50.936;5.334;2023-08-17T06:27:55;12.02;;;6.07;;
25023;SDS011;13033;50.936;5.334;2023-08-17T06:30:20;11.13;;;6.05;;
25023;SDS011;13033;50.936;5.334;2023-08-17T06:32:46;16.45;;;7.40;;
25023;SDS011;13033;50.936;5.334;2023-08-17T06:35:12;14.38;;;7.03;;
25023;SDS011;13033;50.936;5.334;2023-08-17T06:37:38;13.93;;;7.63;;
25023;SDS011;13033;50.936;5.334;2023-08-17T06:40:03;13.25;;;7.47;;
25023;SDS011;13033;50.936;5.334;2023-08-17T06:42:32;15.60;;;8.02;;
25023;SDS011;13033;50.936;5.334;2023-08-17T06:44:58;15.52;;;8.50;;
25023;SDS011;13033;50.936;5.334;2023-08-17T06:47:24;16.63;;;8.10;;
25023;SDS011;13033;50.936;5.334;2023-08-17T06:49:49;20.30;;;8.20;;
25023;SDS011;13033;50.936;5.334;2023-08-17T06:52:15;17.23;;;8.15;;
25023;SDS011;13033;50.936;5.334;2023-08-17T06:54:41;19.60;;;7.90;;
25023;SDS011;13033;50.936;5.334;2023-08-17T06:57:06;15.80;;;8.73;;
25023;SDS011;13033;50.936;5.334;2023-08-17T06:59:32;16.75;;;9.32;;
25023;SDS011;13033;50.936;5.334;2023-08-17T07:02:00;19.40;;;8.98;;
25023;SDS011;13033;50.936;5.334;2023-08-17T07:04:26;22.17;;;10.30;;
25023;SDS011;13033;50.936;5.334;2023-08-17T07:06:52;23.85;;;10.02;;
25023;SDS011;13033;50.936;5.334;2023-08-17T07:09:18;18.15;;;9.45;;
25023;SDS011;13033;50.936;5.334;2023-08-17T07:11:44;18.20;;;11.45;;
25023;SDS011;13033;50.936;5.334;2023-08-17T07:14:09;22.50;;;12.68;;
25023;SDS011;13033;50.936;5.334;2023-08-17T07:16:35;22.25;;;14.05;;
25023;SDS011;13033;50.936;5.334;2023-08-17T07:19:01;24.73;;;13.98;;
25023;SDS011;13033;50.936;5.334;2023-08-17T07:21:27;26.05;;;14.77;;
25023;SDS011;13033;50.936;5.334;2023-08-17T07:23:54;27.77;;;15.13;;
25023;SDS011;13033;50.936;5.334;2023-08-17T07:26:20;28.92;;;16.65;;
25023;SDS011;13033;50.936;5.334;2023-08-17T07:28:46;25.63;;;16.27;;
25023;SDS011;13033;50.936;5.334;2023-08-17T07:31:12;27.73;;;16.17;;
25023;SDS011;13033;50.936;5.334;2023-08-17T07:33:41;30.42;;;16.17;;
25023;SDS011;13033;50.936;5.334;2023-08-17T07:36:07;28.00;;;16.98;;
25023;SDS011;13033;50.936;5.334;2023-08-17T07:38:32;27.77;;;16.20;;
25023;SDS011;13033;50.936;5.334;2023-08-17T07:40:58;24.88;;;15.60;;
25023;SDS011;13033;50.936;5.334;2023-08-17T07:43:24;27.70;;;15.68;;
25023;SDS011;13033;50.936;5.334;2023-08-17T07:45:56;29.80;;;16.50;;
25023;SDS011;13033;50.936;5.334;2023-08-17T07:48:22;27.95;;;15.70;;
25023;SDS011;13033;50.936;5.334;2023-08-17T07:50:49;25.45;;;15.15;;
25023;SDS011;13033;50.936;5.334;2023-08-17T07:53:15;22.42;;;14.75;;
25023;SDS011;13033;50.936;5.334;2023-08-17T07:55:41;22.42;;;14.30;;
25023;SDS011;13033;50.936;5.334;2023-08-17T07:58:07;22.65;;;14.35;;
25023;SDS011;13033;50.936;5.334;2023-08-17T08:00:33;23.85;;;15.32;;
25023;SDS011;13033;50.936;5.334;2023-08-17T08:02:58;25.52;;;14.65;;
25023;SDS011;13033;50.936;5.334;2023-08-17T08:05:24;23.13;;;13.45;;
25023;SDS011;13033;50.936;5.334;2023-08-17T08:07:50;23.90;;;13.52;;
25023;SDS011;13033;50.936;5.334;2023-08-17T08:10:16;22.48;;;12.50;;
25023;SDS011;13033;50.936;5.334;2023-08-17T08:12:42;24.85;;;13.38;;
25023;SDS011;13033;50.936;5.334;2023-08-17T08:15:08;22.67;;;12.93;;
25023;SDS011;13033;50.936;5.334;2023-08-17T08:17:34;24.95;;;14.25;;
25023;SDS011;13033;50.936;5.334;2023-08-17T08:20:00;22.48;;;13.60;;
25023;SDS011;13033;50.936;5.334;2023-08-17T08:22:26;29.52;;;13.98;;
25023;SDS011;13033;50.936;5.334;2023-08-17T08:24:52;24.98;;;14.40;;
25023;SDS011;13033;50.936;5.334;2023-08-17T08:27:17;22.42;;;14.07;;
25023;SDS011;13033;50.936;5.334;2023-08-17T08:29:43;27.02;;;13.95;;
25023;SDS011;13033;50.936;5.334;2023-08-17T08:32:09;29.20;;;14.82;;
25023;SDS011;13033;50.936;5.334;2023-08-17T08:34:34;28.30;;;15.50;;
25023;SDS011;13033;50.936;5.334;2023-08-17T08:37:00;28.05;;;15.63;;
25023;SDS011;13033;50.936;5.334;2023-08-17T08:39:26;26.30;;;15.85;;
25023;SDS011;13033;50.936;5.334;2023-08-17T08:41:52;26.98;;;16.15;;
25023;SDS011;13033;50.936;5.334;2023-08-17T08:44:18;28.50;;;17.05;;
25023;SDS011;13033;50.936;5.334;2023-08-17T08:46:45;29.75;;;16.25;;
25023;SDS011;13033;50.936;5.334;2023-08-17T08:49:11;29.90;;;17.40;;
25023;SDS011;13033;50.936;5.334;2023-08-17T08:51:41;29.25;;;17.70;;
25023;SDS011;13033;50.936;5.334;2023-08-17T08:54:11;32.75;;;17.63;;
25023;SDS011;13033;50.936;5.334;2023-08-17T08:56:39;31.30;;;18.52;;
25023;SDS011;13033;50.936;5.334;2023-08-17T08:59:08;31.05;;;19.08;;
25023;SDS011;13033;50.936;5.334;2023-08-17T09:01:35;31.40;;;19.17;;
25023;SDS011;13033;50.936;5.334;2023-08-17T09:04:01;32.63;;;20.20;;
25023;SDS011;13033;50.936;5.334;2023-08-17T09:06:29;28.10;;;19.13;;
25023;SDS011;13033;50.936;5.334;2023-08-17T09:08:58;30.23;;;19.95;;
25023;SDS011;13033;50.936;5.334;2023-08-17T09:11:27;31.38;;;20.13;;
25023;SDS011;13033;50.936;5.334;2023-08-17T09:13:53;30.48;;;20.30;;
25023;SDS011;13033;50.936;5.334;2023-08-17T09:16:19;28.38;;;19.20;;
25023;SDS011;13033;50.936;5.334;2023-08-17T09:18:45;25.98;;;19.50;;
25023;SDS011;13033;50.936;5.334;2023-08-17T09:21:24;26.23;;;19.30;;
25023;SDS011;13033;50.936;5.334;2023-08-17T09:23:53;23.58;;;17.70;;
25023;SDS011;13033;50.936;5.334;2023-08-17T09:26:20;24.92;;;18.20;;
25023;SDS011;13033;50.936;5.334;2023-08-17T09:28:48;23.92;;;17.80;;
25023;SDS011;13033;50.936;5.334;2023-08-17T09:31:23;25.67;;;17.85;;
25023;SDS011;13033;50.936;5.334;2023-08-17T09:33:49;23.50;;;18.50;;
25023;SDS011;13033;50.936;5.334;2023-08-17T09:36:20;26.60;;;18.40;;
25023;SDS011;13033;50.936;5.334;2023-08-17T09:38:50;22.95;;;18.95;;
25023;SDS011;13033;50.936;5.334;2023-08-17T09:41:19;27.88;;;20.00;;
25023;SDS011;13033;50.936;5.334;2023-08-17T09:43:45;23.42;;;18.65;;
25023;SDS011;13033;50.936;5.334;2023-08-17T09:46:11;25.20;;;20.38;;
25023;SDS011;13033;50.936;5.334;2023-08-17T09:48:37;25.15;;;20.38;;
25023;SDS011;13033;50.936;5.334;2023-08-17T09:51:03;23.23;;;19.55;;
25023;SDS011;13033;50.936;5.334;2023-08-17T09:53:34;26.98;;;20.92;;
25023;SDS011;13033;50.936;5.334;2023-08-17T09:56:01;24.88;;;20.25;;
25023;SDS011;13033;50.936;5.334;2023-08-17T09:58:27;27.15;;;20.25;;
25023;SDS011;13033;50.936;5.334;2023-08-17T10:00:53;26.35;;;19.95;;
25023;SDS011;13033;50.936;5.334;2023-08-17T10:03:19;22.98;;;19.60;;
25023;SDS011;13033;50.936;5.334;2023-08-17T10:05:48;28.33;;;21.60;;
25023;SDS011;13033;50.936;5.334;2023-08-17T10:08:20;28.40;;;21.38;;
25023;SDS011;13033;50.936;5.334;2023-08-17T10:10:46;29.55;;;22.00;;
25023;SDS011;13033;50.936;5.334;2023-08-17T10:21:17;29.27;;;21.73;;
25023;SDS011;13033;50.936;5.334;2023-08-17T10:23:50;31.65;;;22.77;;
25023;SDS011;13033;50.936;5.334;2023-08-17T10:26:16;30.08;;;23.60;;
25023;SDS011;13033;50.936;5.334;2023-08-17T10:28:42;28.10;;;21.02;;
25023;SDS011;13033;50.936;5.334;2023-08-17T10:31:10;27.85;;;21.60;;
25023;SDS011;13033;50.936;5.334;2023-08-17T10:33:36;29.35;;;20.85;;
25023;SDS011;13033;50.936;5.334;2023-08-17T10:36:03;25.70;;;20.23;;
25023;SDS011;13033;50.936;5.334;2023-08-17T10:38:30;26.15;;;18.42;;
25023;SDS011;13033;50.936;5.334;2023-08-17T10:41:07;25.65;;;20.58;;
25023;SDS011;13033;50.936;5.334;2023-08-17T10:43:58;27.90;;;19.58;;
25023;SDS011;13033;50.936;5.334;2023-08-17T10:46:31;22.85;;;18.90;;
25023;SDS011;13033;50.936;5.334;2023-08-17T10:49:04;23.35;;;18.13;;
25023;SDS011;13033;50.936;5.334;2023-08-17T10:51:31;25.55;;;18.58;;
25023;SDS011;13033;50.936;5.334;2023-08-17T10:54:03;24.65;;;18.60;;
25023;SDS011;13033;50.936;5.334;2023-08-17T10:56:30;22.63;;;19.50;;
25023;SDS011;13033;50.936;5.334;2023-08-17T10:59:01;23.67;;;18.08;;
25023;SDS011;13033;50.936;5.334;2023-08-17T11:01:33;30.15;;;18.90;;
25023;SDS011;13033;50.936;5.334;2023-08-17T11:04:15;24.98;;;18.15;;
25023;SDS011;13033;50.936;5.334;2023-08-17T11:06:43;25.70;;;19.17;;
25023;SDS011;13033;50.936;5.334;2023-08-17T11:09:09;25.50;;;18.92;;
25023;SDS011;13033;50.936;5.334;2023-08-17T11:11:35;24.23;;;19.20;;
25023;SDS011;13033;50.936;5.334;2023-08-17T11:14:01;24.73;;;18.90;;
25023;SDS011;13033;50.936;5.334;2023-08-17T11:16:27;26.63;;;19.48;;
25023;SDS011;13033;50.936;5.334;2023-08-17T11:18:53;28.13;;;20.42;;
25023;SDS011;13033;50.936;5.334;2023-08-17T11:21:20;28.33;;;20.52;;
25023;SDS011;13033;50.936;5.334;2023-08-17T11:23:46;26.08;;;19.83;;
25023;SDS011;13033;50.936;5.334;2023-08-17T11:26:16;27.42;;;21.20;;
25023;SDS011;13033;50.936;5.334;2023-08-17T11:28:43;30.35;;;20.45;;
25023;SDS011;13033;50.936;5.334;2023-08-17T11:31:10;25.35;;;21.23;;
25023;SDS011;13033;50.936;5.334;2023-08-17T11:33:37;24.73;;;20.85;;
25023;SDS011;13033;50.936;5.334;2023-08-17T11:36:04;24.50;;;19.20;;
25023;SDS011;13033;50.936;5.334;2023-08-17T11:38:32;24.55;;;19.60;;
25023;SDS011;13033;50.936;5.334;2023-08-17T11:40:58;29.92;;;20.35;;
25023;SDS011;13033;50.936;5.334;2023-08-17T11:43:25;27.52;;;19.60;;
25023;SDS011;13033;50.936;5.334;2023-08-17T11:45:52;29.35;;;20.10;;
25023;SDS011;13033;50.936;5.334;2023-08-17T11:48:20;29.27;;;20.10;;
25023;SDS011;13033;50.936;5.334;2023-08-17T11:50:46;26.08;;;19.45;;
25023;SDS011;13033;50.936;5.334;2023-08-17T11:53:13;26.80;;;19.88;;
25023;SDS011;13033;50.936;5.334;2023-08-17T11:55:38;27.48;;;19.35;;
25023;SDS011;13033;50.936;5.334;2023-08-17T11:58:04;26.65;;;19.20;;
25023;SDS011;13033;50.936;5.334;2023-08-17T12:00:34;26.83;;;19.65;;
25023;SDS011;13033;50.936;5.334;2023-08-17T12:03:02;29.23;;;20.40;;
25023;SDS011;13033;50.936;5.334;2023-08-17T12:05:30;29.92;;;20.48;;
25023;SDS011;13033;50.936;5.334;2023-08-17T12:07:56;29.75;;;20.70;;
25023;SDS011;13033;50.936;5.334;2023-08-17T12:10:23;28.60;;;20.75;;
25023;SDS011;13033;50.936;5.334;2023-08-17T12:12:52;28.20;;;21.30;;
25023;SDS011;13033;50.936;5.334;2023-08-17T12:15:18;30.10;;;22.13;;
25023;SDS011;13033;50.936;5.334;2023-08-17T12:17:47;29.50;;;21.10;;
25023;SDS011;13033;50.936;5.334;2023-08-17T12:20:20;28.13;;;21.35;;
25023;SDS011;13033;50.936;5.334;2023-08-17T12:22:46;32.97;;;23.80;;
25023;SDS011;13033;50.936;5.334;2023-08-17T12:25:13;29.48;;;23.13;;
25023;SDS011;13033;50.936;5.334;2023-08-17T12:27:39;32.65;;;23.60;;
25023;SDS011;13033;50.936;5.334;2023-08-17T12:30:11;33.70;;;23.02;;
25023;SDS011;13033;50.936;5.334;2023-08-17T12:32:51;29.13;;;22.45;;
25023;SDS011;13033;50.936;5.334;2023-08-17T12:35:16;30.33;;;21.90;;
25023;SDS011;13033;50.936;5.334;2023-08-17T12:37:42;32.72;;;22.35;;
25023;SDS011;13033;50.936;5.334;2023-08-17T12:40:08;33.00;;;22.73;;
25023;SDS011;13033;50.936;5.334;2023-08-17T12:42:34;31.23;;;22.58;;
25023;SDS011;13033;50.936;5.334;2023-08-17T12:45:00;28.92;;;22.75;;
25023;SDS011;13033;50.936;5.334;2023-08-17T12:47:26;29.38;;;21.08;;
25023;SDS011;13033;50.936;5.334;2023-08-17T12:49:52;29.55;;;20.92;;
25023;SDS011;13033;50.936;5.334;2023-08-17T12:52:17;28.77;;;21.10;;
25023;SDS011;13033;50.936;5.334;2023-08-17T12:54:43;28.65;;;20.50;;
25023;SDS011;13033;50.936;5.334;2023-08-17T12:57:09;29.20;;;20.10;;
25023;SDS011;13033;50.936;5.334;2023-08-17T12:59:34;25.55;;;18.88;;
25023;SDS011;13033;50.936;5.334;2023-08-17T13:02:00;24.42;;;19.00;;
25023;SDS011;13033;50.936;5.334;2023-08-17T13:04:26;23.98;;;17.92;;
25023;SDS011;13033;50.936;5.334;2023-08-17T13:06:51;23.00;;;17.95;;
25023;SDS011;13033;50.936;5.334;2023-08-17T13:09:18;26.38;;;18.08;;
25023;SDS011;13033;50.936;5.334;2023-08-17T13:11:44;25.38;;;17.98;;
25023;SDS011;13033;50.936;5.334;2023-08-17T13:14:11;23.40;;;17.38;;
25023;SDS011;13033;50.936;5.334;2023-08-17T13:16:41;27.60;;;18.90;;
25023;SDS011;13033;50.936;5.334;2023-08-17T13:19:06;26.13;;;18.38;;
25023;SDS011;13033;50.936;5.334;2023-08-17T13:21:32;23.65;;;17.52;;
25023;SDS011;13033;50.936;5.334;2023-08-17T13:23:58;22.90;;;15.80;;
25023;SDS011;13033;50.936;5.334;2023-08-17T13:26:24;22.25;;;15.63;;
25023;SDS011;13033;50.936;5.334;2023-08-17T13:28:49;25.90;;;16.75;;
25023;SDS011;13033;50.936;5.334;2023-08-17T13:31:15;23.13;;;15.73;;
25023;SDS011;13033;50.936;5.334;2023-08-17T13:33:41;23.08;;;15.48;;
25023;SDS011;13033;50.936;5.334;2023-08-17T13:36:06;20.73;;;14.40;;
25023;SDS011;13033;50.936;5.334;2023-08-17T13:38:32;20.90;;;15.25;;
25023;SDS011;13033;50.936;5.334;2023-08-17T13:40:58;23.60;;;15.70;;
25023;SDS011;13033;50.936;5.334;2023-08-17T13:43:23;24.17;;;16.15;;
25023;SDS011;13033;50.936;5.334;2023-08-17T13:45:49;26.70;;;18.95;;
25023;SDS011;13033;50.936;5.334;2023-08-17T13:48:15;26.92;;;18.95;;
25023;SDS011;13033;50.936;5.334;2023-08-17T13:50:40;26.63;;;17.52;;
25023;SDS011;13033;50.936;5.334;2023-08-17T13:53:06;28.52;;;18.90;;
25023;SDS011;13033;50.936;5.334;2023-08-17T13:55:32;26.52;;;17.20;;
25023;SDS011;13033;50.936;5.334;2023-08-17T13:57:58;22.67;;;16.70;;
25023;SDS011;13033;50.936;5.334;2023-08-17T14:00:24;24.45;;;17.17;;
25023;SDS011;13033;50.936;5.334;2023-08-17T14:02:52;22.48;;;17.13;;
25023;SDS011;13033;50.936;5.334;2023-08-17T14:05:18;20.98;;;15.95;;
25023;SDS011;13033;50.936;5.334;2023-08-17T14:07:44;23.63;;;15.35;;
25023;SDS011;13033;50.936;5.334;2023-08-17T14:10:10;23.33;;;16.38;;
25023;SDS011;13033;50.936;5.334;2023-08-17T14:12:37;24.85;;;18.73;;
25023;SDS011;13033;50.936;5.334;2023-08-17T14:15:03;26.48;;;17.30;;
25023;SDS011;13033;50.936;5.334;2023-08-17T14:17:29;23.73;;;16.90;;
25023;SDS011;13033;50.936;5.334;2023-08-17T14:19:54;25.50;;;17.65;;
25023;SDS011;13033;50.936;5.334;2023-08-17T14:22:20;29.13;;;18.17;;
25023;SDS011;13033;50.936;5.334;2023-08-17T14:24:46;21.75;;;16.63;;
25023;SDS011;13033;50.936;5.334;2023-08-17T14:27:12;28.60;;;20.42;;
25023;SDS011;13033;50.936;5.334;2023-08-17T14:29:38;30.65;;;21.55;;
25023;SDS011;13033;50.936;5.334;2023-08-17T14:32:04;25.20;;;19.60;;
25023;SDS011;13033;50.936;5.334;2023-08-17T14:34:29;31.40;;;20.95;;
25023;SDS011;13033;50.936;5.334;2023-08-17T14:36:55;25.08;;;18.85;;
25023;SDS011;13033;50.936;5.334;2023-08-17T14:39:21;26.55;;;19.52;;
25023;SDS011;13033;50.936;5.334;2023-08-17T14:41:46;29.63;;;21.50;;